sensor_id;sensor_type;location;lat;lon;timestamp;temperature;humidity
39751;DHT22;37579;51.074;17.004;2024-01-15T00:01:56;24.20;40.70
39751;DHT22;37579;51.074;17.004;2024-01-15T00:04:21;24.20;40.50
39751;DHT22;37579;51.074;17.004;2024-01-15T00:06:47;24.20;40.50
39751;DHT22;37579;51.074;17.004;2024-01-15T00:09:13;24.20;40.50
39751;DHT22;37579;51.074;17.004;2024-01-15T00:11:38;24.20;40.60
39751;DHT22;37579;51.074;17.004;2024-01-15T00:14:04;24.20;40.50
39751;DHT22;37579;51.074;17.004;2024-01-15T00:16:30;24.20;40.60
39751;DHT22;37579;51.074;17.004;2024-01-15T00:18:56;24.20;40.50
39751;DHT22;37579;51.074;17.004;2024-01-15T00:21:21;24.20;40.50
39751;DHT22;37579;51.074;17.004;2024-01-15T00:23:47;24.20;40.50
39751;DHT22;37579;51.074;17.004;2024-01-15T00:26:13;24.20;40.50
39751;DHT22;37579;51.074;17.004;2024-01-15T00:28:39;24.20;40.60
39751;DHT22;37579;51.074;17.004;2024-01-15T00:31:05;24.20;40.50
39751;DHT22;37579;51.074;17.004;2024-01-15T00:33:31;24.20;40.50
39751;DHT22;37579;51.074;17.004;2024-01-15T00:35:57;24.20;40.50
39751;DHT22;37579;51.074;17.004;2024-01-15T00:38:22;24.20;40.50
39751;DHT22;37579;51.074;17.004;2024-01-15T00:40:48;24.20;40.50
39751;DHT22;37579;51.074;17.004;2024-01-15T00:43:14;24.20;40.50
39751;DHT22;37579;51.074;17.004;2024-01-15T00:45:40;24.20;40.50
39751;DHT22;37579;51.074;17.004;2024-01-15T00:48:07;24.20;40.50
39751;DHT22;37579;51.074;17.004;2024-01-15T00:50:33;24.20;40.50
39751;DHT22;37579;51.074;17.004;2024-01-15T00:52:58;24.20;40.60
39751;DHT22;37579;51.074;17.004;2024-01-15T00:55:24;24.20;40.60
39751;DHT22;37579;51.074;17.004;2024-01-15T00:57:50;24.10;40.60
39751;DHT22;37579;51.074;17.004;2024-01-15T01:00:16;24.10;40.60
39751;DHT22;37579;51.074;17.004;2024-01-15T01:02:42;24.10;40.60
39751;DHT22;37579;51.074;17.004;2024-01-15T01:05:08;24.10;40.50
39751;DHT22;37579;51.074;17.004;2024-01-15T01:07:33;24.10;40.60
39751;DHT22;37579;51.074;17.004;2024-01-15T01:09:59;24.20;40.60
39751;DHT22;37579;51.074;17.004;2024-01-15T01:12:25;24.10;40.50
39751;DHT22;37579;51.074;17.004;2024-01-15T01:14:51;24.20;40.60
39751;DHT22;37579;51.074;17.004;2024-01-15T01:17:16;24.10;40.60
39751;DHT22;37579;51.074;17.004;2024-01-15T01:19:43;24.10;40.60
39751;DHT22;37579;51.074;17.004;2024-01-15T01:22:08;24.10;40.70
39751;DHT22;37579;51.074;17.004;2024-01-15T01:24:34;24.10;40.70
39751;DHT22;37579;51.074;17.004;2024-01-15T01:27:00;24.10;40.70
39751;DHT22;37579;51.074;17.004;2024-01-15T01:29:25;24.10;40.70
39751;DHT22;37579;51.074;17.004;2024-01-15T01:31:52;24.00;40.70
39751;DHT22;37579;51.074;17.004;2024-01-15T01:34:18;24.00;40.70
39751;DHT22;37579;51.074;17.004;2024-01-15T01:36:43;24.10;40.70
39751;DHT22;37579;51.074;17.004;2024-01-15T01:39:09;24.00;40.70
39751;DHT22;37579;51.074;17.004;2024-01-15T01:41:35;24.00;40.80
39751;DHT22;37579;51.074;17.004;2024-01-15T01:44:01;24.00;40.80
39751;DHT22;37579;51.074;17.004;2024-01-15T01:46:27;23.90;40.80
39751;DHT22;37579;51.074;17.004;2024-01-15T01:48:55;23.90;40.90
39751;DHT22;37579;51.074;17.004;2024-01-15T01:51:23;23.90;40.90
39751;DHT22;37579;51.074;17.004;2024-01-15T01:53:50;23.90;41.00
39751;DHT22;37579;51.074;17.004;2024-01-15T01:56:17;23.90;41.00
39751;DHT22;37579;51.074;17.004;2024-01-15T01:58:46;23.90;41.00
39751;DHT22;37579;51.074;17.004;2024-01-15T02:01:12;23.90;41.00
39751;DHT22;37579;51.074;17.004;2024-01-15T02:03:40;23.90;41.00
39751;DHT22;37579;51.074;17.004;2024-01-15T02:06:06;23.80;41.10
39751;DHT22;37579;51.074;17.004;2024-01-15T02:08:32;23.90;41.00
39751;DHT22;37579;51.074;17.004;2024-01-15T02:10:58;24.10;40.80
39751;DHT22;37579;51.074;17.004;2024-01-15T02:13:24;24.20;40.70
39751;DHT22;37579;51.074;17.004;2024-01-15T02:15:50;24.20;40.50
39751;DHT22;37579;51.074;17.004;2024-01-15T02:18:15;24.30;40.50
39751;DHT22;37579;51.074;17.004;2024-01-15T02:20:41;24.30;40.50
39751;DHT22;37579;51.074;17.004;2024-01-15T02:25:44;24.30;40.50
39751;DHT22;37579;51.074;17.004;2024-01-15T02:28:12;24.30;40.40
39751;DHT22;37579;51.074;17.004;2024-01-15T02:30:39;24.30;40.40
39751;DHT22;37579;51.074;17.004;2024-01-15T02:33:05;24.30;41.10
39751;DHT22;37579;51.074;17.004;2024-01-15T02:35:31;24.30;40.40
39751;DHT22;37579;51.074;17.004;2024-01-15T02:37:57;24.30;40.40
39751;DHT22;37579;51.074;17.004;2024-01-15T02:40:23;24.30;40.30
39751;DHT22;37579;51.074;17.004;2024-01-15T02:42:49;24.30;40.40
39751;DHT22;37579;51.074;17.004;2024-01-15T02:45:14;24.40;40.80
39751;DHT22;37579;51.074;17.004;2024-01-15T02:47:40;24.30;40.40
39751;DHT22;37579;51.074;17.004;2024-01-15T02:50:06;24.30;40.40
39751;DHT22;37579;51.074;17.004;2024-01-15T02:52:32;24.30;40.40
39751;DHT22;37579;51.074;17.004;2024-01-15T02:54:58;24.30;40.40
39751;DHT22;37579;51.074;17.004;2024-01-15T02:57:23;24.30;40.50
39751;DHT22;37579;51.074;17.004;2024-01-15T02:59:49;24.30;40.40
39751;DHT22;37579;51.074;17.004;2024-01-15T03:02:15;24.30;40.40
39751;DHT22;37579;51.074;17.004;2024-01-15T03:04:44;24.20;40.40
39751;DHT22;37579;51.074;17.004;2024-01-15T03:07:10;24.20;40.50
39751;DHT22;37579;51.074;17.004;2024-01-15T03:09:36;24.20;40.50
39751;DHT22;37579;51.074;17.004;2024-01-15T03:12:01;24.10;40.60
39751;DHT22;37579;51.074;17.004;2024-01-15T03:14:27;24.20;40.60
39751;DHT22;37579;51.074;17.004;2024-01-15T03:16:53;24.10;40.50
39751;DHT22;37579;51.074;17.004;2024-01-15T03:19:19;24.10;40.60
39751;DHT22;37579;51.074;17.004;2024-01-15T03:21:45;24.00;40.70
39751;DHT22;37579;51.074;17.004;2024-01-15T03:24:11;23.90;40.80
39751;DHT22;37579;51.074;17.004;2024-01-15T03:26:36;23.90;40.90
39751;DHT22;37579;51.074;17.004;2024-01-15T03:29:02;23.90;40.90
39751;DHT22;37579;51.074;17.004;2024-01-15T03:31:28;23.80;41.00
39751;DHT22;37579;51.074;17.004;2024-01-15T03:33:53;23.80;41.00
39751;DHT22;37579;51.074;17.004;2024-01-15T03:36:19;23.80;41.00
39751;DHT22;37579;51.074;17.004;2024-01-15T03:38:45;23.80;41.00
39751;DHT22;37579;51.074;17.004;2024-01-15T03:41:11;23.80;41.10
39751;DHT22;37579;51.074;17.004;2024-01-15T03:43:37;23.80;41.00
39751;DHT22;37579;51.074;17.004;2024-01-15T03:46:03;23.80;41.00
39751;DHT22;37579;51.074;17.004;2024-01-15T03:48:30;23.70;41.00
39751;DHT22;37579;51.074;17.004;2024-01-15T03:50:56;23.70;41.20
39751;DHT22;37579;51.074;17.004;2024-01-15T03:53:21;23.80;41.20
39751;DHT22;37579;51.074;17.004;2024-01-15T03:55:47;23.90;40.80
39751;DHT22;37579;51.074;17.004;2024-01-15T03:58:13;24.10;40.70
39751;DHT22;37579;51.074;17.004;2024-01-15T04:00:40;24.10;40.60
39751;DHT22;37579;51.074;17.004;2024-01-15T04:03:06;24.20;40.50
39751;DHT22;37579;51.074;17.004;2024-01-15T04:05:32;24.20;40.60
39751;DHT22;37579;51.074;17.004;2024-01-15T04:07:58;24.30;40.50
39751;DHT22;37579;51.074;17.004;2024-01-15T04:10:23;24.30;40.40
39751;DHT22;37579;51.074;17.004;2024-01-15T04:12:49;24.40;40.40
39751;DHT22;37579;51.074;17.004;2024-01-15T04:15:15;24.30;40.40
39751;DHT22;37579;51.074;17.004;2024-01-15T04:17:41;24.40;40.40
39751;DHT22;37579;51.074;17.004;2024-01-15T04:20:07;24.40;40.30
39751;DHT22;37579;51.074;17.004;2024-01-15T04:22:35;24.50;40.30
39751;DHT22;37579;51.074;17.004;2024-01-15T04:25:01;24.40;40.20
39751;DHT22;37579;51.074;17.004;2024-01-15T04:27:27;24.50;40.20
39751;DHT22;37579;51.074;17.004;2024-01-15T04:29:53;24.50;40.20
39751;DHT22;37579;51.074;17.004;2024-01-15T04:32:19;24.40;40.10
39751;DHT22;37579;51.074;17.004;2024-01-15T04:34:44;24.40;40.20
39751;DHT22;37579;51.074;17.004;2024-01-15T04:37:10;24.50;40.20
39751;DHT22;37579;51.074;17.004;2024-01-15T04:39:36;24.40;40.10
39751;DHT22;37579;51.074;17.004;2024-01-15T04:42:02;24.50;40.20
39751;DHT22;37579;51.074;17.004;2024-01-15T04:44:28;24.40;40.10
39751;DHT22;37579;51.074;17.004;2024-01-15T04:46:54;24.40;40.20
39751;DHT22;37579;51.074;17.004;2024-01-15T04:49:20;24.40;40.10
39751;DHT22;37579;51.074;17.004;2024-01-15T04:51:46;24.40;40.20
39751;DHT22;37579;51.074;17.004;2024-01-15T04:54:11;24.40;40.20
39751;DHT22;37579;51.074;17.004;2024-01-15T04:56:37;24.30;40.20
39751;DHT22;37579;51.074;17.004;2024-01-15T04:59:03;24.30;40.20
39751;DHT22;37579;51.074;17.004;2024-01-15T05:01:32;24.30;40.30
39751;DHT22;37579;51.074;17.004;2024-01-15T05:03:59;24.20;40.30
39751;DHT22;37579;51.074;17.004;2024-01-15T05:06:25;24.20;40.50
39751;DHT22;37579;51.074;17.004;2024-01-15T05:08:50;24.10;40.60
39751;DHT22;37579;51.074;17.004;2024-01-15T05:11:16;24.00;40.70
39751;DHT22;37579;51.074;17.004;2024-01-15T05:13:42;24.00;40.70
39751;DHT22;37579;51.074;17.004;2024-01-15T05:16:07;24.10;40.60
39751;DHT22;37579;51.074;17.004;2024-01-15T05:18:33;24.20;40.40
39751;DHT22;37579;51.074;17.004;2024-01-15T05:20:59;24.30;40.30
39751;DHT22;37579;51.074;17.004;2024-01-15T05:23:25;24.30;40.40
39751;DHT22;37579;51.074;17.004;2024-01-15T05:25:50;24.30;40.40
39751;DHT22;37579;51.074;17.004;2024-01-15T05:28:16;24.30;40.40
39751;DHT22;37579;51.074;17.004;2024-01-15T05:30:42;24.30;40.40
39751;DHT22;37579;51.074;17.004;2024-01-15T05:33:08;24.30;40.40
39751;DHT22;37579;51.074;17.004;2024-01-15T05:35:34;24.30;40.40
39751;DHT22;37579;51.074;17.004;2024-01-15T05:38:00;24.30;40.40
39751;DHT22;37579;51.074;17.004;2024-01-15T05:40:26;24.30;40.50
39751;DHT22;37579;51.074;17.004;2024-01-15T05:42:51;24.30;40.50
39751;DHT22;37579;51.074;17.004;2024-01-15T05:45:17;24.30;40.50
39751;DHT22;37579;51.074;17.004;2024-01-15T05:47:43;24.20;40.40
39751;DHT22;37579;51.074;17.004;2024-01-15T05:50:10;24.20;40.50
39751;DHT22;37579;51.074;17.004;2024-01-15T05:52:36;24.30;40.40
39751;DHT22;37579;51.074;17.004;2024-01-15T05:55:02;24.20;40.40
39751;DHT22;37579;51.074;17.004;2024-01-15T05:57:27;24.20;40.50
39751;DHT22;37579;51.074;17.004;2024-01-15T05:59:53;24.20;40.50
39751;DHT22;37579;51.074;17.004;2024-01-15T06:02:19;24.20;40.50
39751;DHT22;37579;51.074;17.004;2024-01-15T06:04:45;24.30;40.50
39751;DHT22;37579;51.074;17.004;2024-01-15T06:07:11;24.20;40.40
39751;DHT22;37579;51.074;17.004;2024-01-15T06:09:37;24.30;40.50
39751;DHT22;37579;51.074;17.004;2024-01-15T06:12:04;24.30;40.50
39751;DHT22;37579;51.074;17.004;2024-01-15T06:14:30;24.30;40.40
39751;DHT22;37579;51.074;17.004;2024-01-15T06:16:56;24.30;40.40
39751;DHT22;37579;51.074;17.004;2024-01-15T06:19:22;24.30;40.30
39751;DHT22;37579;51.074;17.004;2024-01-15T06:21:48;24.40;40.30
39751;DHT22;37579;51.074;17.004;2024-01-15T06:24:13;24.40;40.20
39751;DHT22;37579;51.074;17.004;2024-01-15T06:26:40;24.50;40.20
39751;DHT22;37579;51.074;17.004;2024-01-15T06:29:06;24.50;40.10
39751;DHT22;37579;51.074;17.004;2024-01-15T06:31:32;24.50;40.20
39751;DHT22;37579;51.074;17.004;2024-01-15T06:33:58;24.40;40.10
39751;DHT22;37579;51.074;17.004;2024-01-15T06:36:23;24.50;40.00
39751;DHT22;37579;51.074;17.004;2024-01-15T06:38:49;24.50;40.00
39751;DHT22;37579;51.074;17.004;2024-01-15T06:41:15;24.50;40.00
39751;DHT22;37579;51.074;17.004;2024-01-15T06:43:41;24.50;40.00
39751;DHT22;37579;51.074;17.004;2024-01-15T06:46:06;24.60;40.00
39751;DHT22;37579;51.074;17.004;2024-01-15T06:48:32;24.50;40.00
39751;DHT22;37579;51.074;17.004;2024-01-15T06:50:58;24.50;39.90
39751;DHT22;37579;51.074;17.004;2024-01-15T06:53:23;24.50;40.00
39751;DHT22;37579;51.074;17.004;2024-01-15T06:55:49;24.50;40.00
39751;DHT22;37579;51.074;17.004;2024-01-15T06:58:16;24.40;40.10
39751;DHT22;37579;51.074;17.004;2024-01-15T07:00:42;24.40;40.10
39751;DHT22;37579;51.074;17.004;2024-01-15T07:03:08;24.40;40.10
39751;DHT22;37579;51.074;17.004;2024-01-15T07:05:34;24.40;40.10
39751;DHT22;37579;51.074;17.004;2024-01-15T07:07:59;24.30;40.10
39751;DHT22;37579;51.074;17.004;2024-01-15T07:10:25;24.30;40.30
39751;DHT22;37579;51.074;17.004;2024-01-15T07:12:51;24.20;40.30
39751;DHT22;37579;51.074;17.004;2024-01-15T07:15:17;24.30;40.30
39751;DHT22;37579;51.074;17.004;2024-01-15T07:17:43;24.30;40.20
39751;DHT22;37579;51.074;17.004;2024-01-15T07:20:09;24.40;40.20
39751;DHT22;37579;51.074;17.004;2024-01-15T07:22:36;24.40;40.10
39751;DHT22;37579;51.074;17.004;2024-01-15T07:25:02;24.40;40.10
39751;DHT22;37579;51.074;17.004;2024-01-15T07:27:28;24.50;40.10
39751;DHT22;37579;51.074;17.004;2024-01-15T07:29:53;24.40;40.10
39751;DHT22;37579;51.074;17.004;2024-01-15T07:32:19;24.50;40.20
39751;DHT22;37579;51.074;17.004;2024-01-15T07:34:46;24.50;40.20
39751;DHT22;37579;51.074;17.004;2024-01-15T07:37:11;24.40;40.10
39751;DHT22;37579;51.074;17.004;2024-01-15T07:39:37;24.40;40.20
39751;DHT22;37579;51.074;17.004;2024-01-15T07:42:03;24.40;40.20
39751;DHT22;37579;51.074;17.004;2024-01-15T07:44:29;24.40;40.20
39751;DHT22;37579;51.074;17.004;2024-01-15T07:46:55;24.40;40.20
39751;DHT22;37579;51.074;17.004;2024-01-15T07:49:21;24.40;40.30
39751;DHT22;37579;51.074;17.004;2024-01-15T07:51:46;24.40;40.30
39751;DHT22;37579;51.074;17.004;2024-01-15T07:54:12;24.30;40.30
39751;DHT22;37579;51.074;17.004;2024-01-15T07:56:57;24.40;40.30
39751;DHT22;37579;51.074;17.004;2024-01-15T07:59:23;24.40;40.30
39751;DHT22;37579;51.074;17.004;2024-01-15T08:01:49;24.40;40.30
39751;DHT22;37579;51.074;17.004;2024-01-15T08:04:15;24.40;40.30
39751;DHT22;37579;51.074;17.004;2024-01-15T08:06:41;24.40;40.30
39751;DHT22;37579;51.074;17.004;2024-01-15T08:09:07;24.40;40.30
39751;DHT22;37579;51.074;17.004;2024-01-15T08:11:34;24.40;40.40
39751;DHT22;37579;51.074;17.004;2024-01-15T08:14:01;24.40;40.40
39751;DHT22;37579;51.074;17.004;2024-01-15T08:16:26;24.40;40.30
39751;DHT22;37579;51.074;17.004;2024-01-15T08:18:53;24.40;40.30
39751;DHT22;37579;51.074;17.004;2024-01-15T08:21:19;24.40;40.30
39751;DHT22;37579;51.074;17.004;2024-01-15T08:23:45;24.40;40.30
39751;DHT22;37579;51.074;17.004;2024-01-15T08:26:10;24.40;40.30
39751;DHT22;37579;51.074;17.004;2024-01-15T08:28:36;24.40;40.40
39751;DHT22;37579;51.074;17.004;2024-01-15T08:31:02;24.40;40.30
39751;DHT22;37579;51.074;17.004;2024-01-15T08:33:29;24.40;41.00
39751;DHT22;37579;51.074;17.004;2024-01-15T08:35:55;24.40;40.40
39751;DHT22;37579;51.074;17.004;2024-01-15T08:38:20;24.40;40.50
39751;DHT22;37579;51.074;17.004;2024-01-15T08:40:46;24.30;40.50
39751;DHT22;37579;51.074;17.004;2024-01-15T08:43:12;24.30;40.50
39751;DHT22;37579;51.074;17.004;2024-01-15T08:45:38;24.30;40.60
39751;DHT22;37579;51.074;17.004;2024-01-15T08:48:04;24.30;40.60
39751;DHT22;37579;51.074;17.004;2024-01-15T08:50:31;24.20;40.60
39751;DHT22;37579;51.074;17.004;2024-01-15T08:52:57;24.20;40.70
39751;DHT22;37579;51.074;17.004;2024-01-15T08:55:23;24.20;40.60
39751;DHT22;37579;51.074;17.004;2024-01-15T08:57:50;24.20;40.70
39751;DHT22;37579;51.074;17.004;2024-01-15T09:00:16;24.20;40.70
39751;DHT22;37579;51.074;17.004;2024-01-15T09:02:42;24.20;40.70
39751;DHT22;37579;51.074;17.004;2024-01-15T09:05:08;24.30;40.70
39751;DHT22;37579;51.074;17.004;2024-01-15T09:07:34;24.20;40.80
39751;DHT22;37579;51.074;17.004;2024-01-15T09:09:59;24.20;40.90
39751;DHT22;37579;51.074;17.004;2024-01-15T09:12:26;24.20;40.80
39751;DHT22;37579;51.074;17.004;2024-01-15T09:14:51;24.20;40.80
39751;DHT22;37579;51.074;17.004;2024-01-15T09:17:19;24.30;40.80
39751;DHT22;37579;51.074;17.004;2024-01-15T09:19:45;24.30;40.70
39751;DHT22;37579;51.074;17.004;2024-01-15T09:22:13;24.40;40.60
39751;DHT22;37579;51.074;17.004;2024-01-15T09:24:42;24.40;40.60
39751;DHT22;37579;51.074;17.004;2024-01-15T09:27:08;24.40;40.50
39751;DHT22;37579;51.074;17.004;2024-01-15T09:29:34;24.50;40.50
39751;DHT22;37579;51.074;17.004;2024-01-15T09:32:03;24.50;40.40
39751;DHT22;37579;51.074;17.004;2024-01-15T09:34:29;24.50;40.40
39751;DHT22;37579;51.074;17.004;2024-01-15T09:36:55;24.60;40.30
39751;DHT22;37579;51.074;17.004;2024-01-15T09:39:21;24.60;40.30
39751;DHT22;37579;51.074;17.004;2024-01-15T09:41:49;24.60;40.30
39751;DHT22;37579;51.074;17.004;2024-01-15T09:44:16;24.60;40.20
39751;DHT22;37579;51.074;17.004;2024-01-15T09:46:42;24.60;40.20
39751;DHT22;37579;51.074;17.004;2024-01-15T09:49:10;24.60;40.20
39751;DHT22;37579;51.074;17.004;2024-01-15T09:51:36;24.60;40.20
39751;DHT22;37579;51.074;17.004;2024-01-15T09:54:03;24.60;40.20
39751;DHT22;37579;51.074;17.004;2024-01-15T09:56:30;24.60;40.30
39751;DHT22;37579;51.074;17.004;2024-01-15T09:58:57;24.60;40.20
39751;DHT22;37579;51.074;17.004;2024-01-15T10:01:23;24.60;40.20
39751;DHT22;37579;51.074;17.004;2024-01-15T10:03:50;24.60;40.20
39751;DHT22;37579;51.074;17.004;2024-01-15T10:06:17;24.50;40.20
39751;DHT22;37579;51.074;17.004;2024-01-15T10:08:51;24.50;40.20
39751;DHT22;37579;51.074;17.004;2024-01-15T10:11:17;24.40;40.30
39751;DHT22;37579;51.074;17.004;2024-01-15T10:13:46;24.40;40.40
39751;DHT22;37579;51.074;17.004;2024-01-15T10:16:12;24.30;40.40
39751;DHT22;37579;51.074;17.004;2024-01-15T10:18:38;24.30;40.50
39751;DHT22;37579;51.074;17.004;2024-01-15T10:21:06;24.30;40.60
39751;DHT22;37579;51.074;17.004;2024-01-15T10:23:32;24.20;40.60
39751;DHT22;37579;51.074;17.004;2024-01-15T10:25:58;24.20;40.60
39751;DHT22;37579;51.074;17.004;2024-01-15T10:28:26;24.20;40.70
39751;DHT22;37579;51.074;17.004;2024-01-15T10:30:55;24.20;40.70
39751;DHT22;37579;51.074;17.004;2024-01-15T10:33:24;24.20;40.80
39751;DHT22;37579;51.074;17.004;2024-01-15T10:35:57;24.10;40.90
39751;DHT22;37579;51.074;17.004;2024-01-15T10:38:24;24.10;40.80
39751;DHT22;37579;51.074;17.004;2024-01-15T10:40:56;24.10;40.90
39751;DHT22;37579;51.074;17.004;2024-01-15T10:43:22;24.10;40.90
39751;DHT22;37579;51.074;17.004;2024-01-15T10:45:50;24.00;41.00
39751;DHT22;37579;51.074;17.004;2024-01-15T10:48:17;24.00;41.10
39751;DHT22;37579;51.074;17.004;2024-01-15T10:50:47;23.90;41.00
39751;DHT22;37579;51.074;17.004;2024-01-15T10:53:16;23.90;41.00
39751;DHT22;37579;51.074;17.004;2024-01-15T10:55:42;23.90;41.10
39751;DHT22;37579;51.074;17.004;2024-01-15T10:58:09;24.10;40.90
39751;DHT22;37579;51.074;17.004;2024-01-15T11:00:36;24.20;40.90
39751;DHT22;37579;51.074;17.004;2024-01-15T11:03:06;24.20;41.00
39751;DHT22;37579;51.074;17.004;2024-01-15T11:05:42;24.20;41.00
39751;DHT22;37579;51.074;17.004;2024-01-15T11:08:09;24.20;41.00
39751;DHT22;37579;51.074;17.004;2024-01-15T11:10:42;24.20;40.90
39751;DHT22;37579;51.074;17.004;2024-01-15T11:13:08;24.30;40.90
39751;DHT22;37579;51.074;17.004;2024-01-15T11:15:57;24.30;40.80
39751;DHT22;37579;51.074;17.004;2024-01-15T11:18:23;24.30;40.90
39751;DHT22;37579;51.074;17.004;2024-01-15T11:29:07;24.30;40.90
39751;DHT22;37579;51.074;17.004;2024-01-15T11:34:06;24.30;40.90
39751;DHT22;37579;51.074;17.004;2024-01-15T11:42:03;24.30;40.90
39751;DHT22;37579;51.074;17.004;2024-01-15T11:44:30;24.20;40.90
39751;DHT22;37579;51.074;17.004;2024-01-15T11:46:58;24.30;40.90
39751;DHT22;37579;51.074;17.004;2024-01-15T11:50:00;23.90;35.00
39751;DHT22;37579;51.074;17.004;2024-01-15T11:52:32;23.60;35.90
39751;DHT22;37579;51.074;17.004;2024-01-15T11:55:05;23.80;37.00
39751;DHT22;37579;51.074;17.004;2024-01-15T11:57:49;23.90;37.40
39751;DHT22;37579;51.074;17.004;2024-01-15T12:00:15;23.90;37.70
39751;DHT22;37579;51.074;17.004;2024-01-15T12:02:43;24.00;37.90
39751;DHT22;37579;51.074;17.004;2024-01-15T12:05:13;24.10;38.10
39751;DHT22;37579;51.074;17.004;2024-01-15T12:07:39;24.10;38.20
39751;DHT22;37579;51.074;17.004;2024-01-15T12:10:13;24.10;38.20
39751;DHT22;37579;51.074;17.004;2024-01-15T12:13:04;24.10;38.40
39751;DHT22;37579;51.074;17.004;2024-01-15T12:15:31;24.20;38.40
39751;DHT22;37579;51.074;17.004;2024-01-15T12:17:59;24.20;38.60
39751;DHT22;37579;51.074;17.004;2024-01-15T12:20:28;24.20;38.60
39751;DHT22;37579;51.074;17.004;2024-01-15T12:22:55;24.20;38.70
39751;DHT22;37579;51.074;17.004;2024-01-15T12:25:22;24.20;38.70
39751;DHT22;37579;51.074;17.004;2024-01-15T12:27:48;24.20;38.80
39751;DHT22;37579;51.074;17.004;2024-01-15T12:30:14;24.20;38.90
39751;DHT22;37579;51.074;17.004;2024-01-15T12:32:41;24.20;38.90
39751;DHT22;37579;51.074;17.004;2024-01-15T12:35:11;24.20;39.00
39751;DHT22;37579;51.074;17.004;2024-01-15T12:37:38;24.10;39.10
39751;DHT22;37579;51.074;17.004;2024-01-15T12:40:05;24.10;39.80
39751;DHT22;37579;51.074;17.004;2024-01-15T12:42:41;24.00;39.20
39751;DHT22;37579;51.074;17.004;2024-01-15T12:45:08;23.90;39.30
39751;DHT22;37579;51.074;17.004;2024-01-15T12:47:34;24.00;39.40
39751;DHT22;37579;51.074;17.004;2024-01-15T12:50:00;23.90;39.50
39751;DHT22;37579;51.074;17.004;2024-01-15T12:52:27;23.90;39.50
39751;DHT22;37579;51.074;17.004;2024-01-15T12:54:53;23.90;39.50
39751;DHT22;37579;51.074;17.004;2024-01-15T12:57:19;23.90;39.50
39751;DHT22;37579;51.074;17.004;2024-01-15T12:59:45;23.90;39.60
39751;DHT22;37579;51.074;17.004;2024-01-15T13:02:12;23.90;39.70
39751;DHT22;37579;51.074;17.004;2024-01-15T13:04:38;23.90;39.70
39751;DHT22;37579;51.074;17.004;2024-01-15T13:07:05;23.90;39.70
39751;DHT22;37579;51.074;17.004;2024-01-15T13:09:32;23.80;39.70
39751;DHT22;37579;51.074;17.004;2024-01-15T13:11:57;23.90;39.90
39751;DHT22;37579;51.074;17.004;2024-01-15T13:14:23;24.10;39.70
39751;DHT22;37579;51.074;17.004;2024-01-15T13:16:49;24.10;39.50
39751;DHT22;37579;51.074;17.004;2024-01-15T13:19:15;24.20;39.60
39751;DHT22;37579;51.074;17.004;2024-01-15T13:21:41;24.10;39.50
39751;DHT22;37579;51.074;17.004;2024-01-15T13:24:07;24.10;39.50
39751;DHT22;37579;51.074;17.004;2024-01-15T13:26:33;24.10;39.60
39751;DHT22;37579;51.074;17.004;2024-01-15T13:29:00;24.10;39.50
39751;DHT22;37579;51.074;17.004;2024-01-15T13:31:27;24.20;39.60
39751;DHT22;37579;51.074;17.004;2024-01-15T13:33:53;24.20;39.60
39751;DHT22;37579;51.074;17.004;2024-01-15T13:36:21;24.10;39.60
39751;DHT22;37579;51.074;17.004;2024-01-15T13:38:47;24.20;39.70
39751;DHT22;37579;51.074;17.004;2024-01-15T13:41:12;24.20;39.60
39751;DHT22;37579;51.074;17.004;2024-01-15T13:43:38;24.20;39.60
39751;DHT22;37579;51.074;17.004;2024-01-15T13:46:04;24.20;39.60
39751;DHT22;37579;51.074;17.004;2024-01-15T13:48:30;24.20;39.60
39751;DHT22;37579;51.074;17.004;2024-01-15T13:50:57;24.20;39.50
39751;DHT22;37579;51.074;17.004;2024-01-15T13:53:23;24.20;39.50
39751;DHT22;37579;51.074;17.004;2024-01-15T13:55:49;24.20;39.50
39751;DHT22;37579;51.074;17.004;2024-01-15T13:58:14;24.20;39.50
39751;DHT22;37579;51.074;17.004;2024-01-15T14:00:41;24.30;39.50
39751;DHT22;37579;51.074;17.004;2024-01-15T14:03:07;24.20;39.50
39751;DHT22;37579;51.074;17.004;2024-01-15T14:05:33;24.30;39.50
39751;DHT22;37579;51.074;17.004;2024-01-15T14:07:59;24.20;39.60
39751;DHT22;37579;51.074;17.004;2024-01-15T14:10:25;24.20;39.60
39751;DHT22;37579;51.074;17.004;2024-01-15T14:12:51;24.20;39.60
39751;DHT22;37579;51.074;17.004;2024-01-15T14:15:17;24.20;39.60
39751;DHT22;37579;51.074;17.004;2024-01-15T14:17:44;24.20;39.60
39751;DHT22;37579;51.074;17.004;2024-01-15T14:20:10;24.20;39.60
39751;DHT22;37579;51.074;17.004;2024-01-15T14:22:36;24.20;39.60
39751;DHT22;37579;51.074;17.004;2024-01-15T14:25:02;24.10;39.60
39751;DHT22;37579;51.074;17.004;2024-01-15T14:27:27;24.10;39.60
39751;DHT22;37579;51.074;17.004;2024-01-15T14:29:53;24.10;39.70
39751;DHT22;37579;51.074;17.004;2024-01-15T14:32:19;24.10;39.70
39751;DHT22;37579;51.074;17.004;2024-01-15T14:34:44;24.10;39.70
39751;DHT22;37579;51.074;17.004;2024-01-15T14:37:10;24.10;39.70
39751;DHT22;37579;51.074;17.004;2024-01-15T14:39:36;24.10;39.70
39751;DHT22;37579;51.074;17.004;2024-01-15T14:42:02;24.10;39.70
39751;DHT22;37579;51.074;17.004;2024-01-15T14:44:28;24.10;39.80
39751;DHT22;37579;51.074;17.004;2024-01-15T14:46:58;24.10;39.90
39751;DHT22;37579;51.074;17.004;2024-01-15T14:49:24;24.10;39.90
39751;DHT22;37579;51.074;17.004;2024-01-15T14:51:50;24.10;39.80
39751;DHT22;37579;51.074;17.004;2024-01-15T14:54:16;24.10;39.80
39751;DHT22;37579;51.074;17.004;2024-01-15T14:56:42;24.10;39.80
39751;DHT22;37579;51.074;17.004;2024-01-15T14:59:10;24.10;39.90
39751;DHT22;37579;51.074;17.004;2024-01-15T15:01:36;24.10;39.90
39751;DHT22;37579;51.074;17.004;2024-01-15T15:04:02;24.10;39.90
39751;DHT22;37579;51.074;17.004;2024-01-15T15:06:28;24.10;39.90
39751;DHT22;37579;51.074;17.004;2024-01-15T15:08:54;24.10;40.00
39751;DHT22;37579;51.074;17.004;2024-01-15T15:11:26;24.00;40.00
39751;DHT22;37579;51.074;17.004;2024-01-15T15:13:52;24.00;40.00
39751;DHT22;37579;51.074;17.004;2024-01-15T15:16:18;24.00;40.00
39751;DHT22;37579;51.074;17.004;2024-01-15T15:18:43;23.90;40.00
39751;DHT22;37579;51.074;17.004;2024-01-15T15:21:11;23.90;40.10
39751;DHT22;37579;51.074;17.004;2024-01-15T15:23:37;24.00;40.10
39751;DHT22;37579;51.074;17.004;2024-01-15T15:26:04;23.90;40.10
39751;DHT22;37579;51.074;17.004;2024-01-15T15:28:30;23.90;40.30
39751;DHT22;37579;51.074;17.004;2024-01-15T15:30:56;23.80;40.20